createdAt,value
2023-05-21T00:00:23.458Z,17.40
2023-05-21T00:02:51.425Z,17.40
2023-05-21T00:05:18.845Z,17.40
2023-05-21T00:07:47.114Z,17.40
2023-05-21T00:10:14.273Z,17.30
2023-05-21T00:12:41.938Z,17.30
2023-05-21T00:15:09.455Z,17.30
2023-05-21T00:17:36.945Z,17.30
2023-05-21T00:20:09.941Z,17.30
2023-05-21T00:22:36.608Z,17.40
2023-05-21T00:25:04.100Z,17.30
2023-05-21T00:27:30.761Z,17.40
2023-05-21T00:29:57.886Z,17.30
2023-05-21T00:32:24.710Z,17.30
2023-05-21T00:34:51.373Z,17.30
2023-05-21T00:37:18.071Z,17.30
2023-05-21T00:39:44.744Z,17.30
2023-05-21T00:42:12.099Z,17.20
2023-05-21T00:44:39.279Z,17.20
2023-05-21T00:47:06.525Z,17.20
2023-05-21T00:49:33.201Z,17.20
2023-05-21T00:52:01.558Z,17.20
2023-05-21T00:54:28.807Z,17.20
2023-05-21T00:56:56.179Z,17.20
2023-05-21T00:59:24.010Z,17.10
2023-05-21T01:01:56.411Z,17.10
2023-05-21T01:04:24.110Z,17.20
2023-05-21T01:06:53.415Z,17.10
2023-05-21T01:09:20.466Z,17.10
2023-05-21T01:11:49.350Z,17.10
2023-05-21T01:14:18.870Z,17.20
2023-05-21T01:16:49.520Z,17.10
2023-05-21T01:19:18.350Z,17.10
2023-05-21T01:21:47.151Z,17.10
2023-05-21T01:24:15.584Z,17.20
2023-05-21T01:26:44.110Z,17.10
2023-05-21T01:29:14.133Z,17.10
2023-05-21T01:31:57.543Z,17.10
2023-05-21T01:34:32.622Z,17.10
2023-05-21T01:37:21.802Z,17.10
2023-05-21T01:39:55.920Z,17.10
2023-05-21T01:42:24.135Z,17.10
2023-05-21T01:44:56.850Z,17.10
2023-05-21T01:47:24.450Z,17.20
2023-05-21T01:49:52.324Z,17.20
2023-05-21T01:52:19.325Z,17.20
2023-05-21T01:54:46.013Z,17.20
2023-05-21T01:57:12.707Z,17.20
2023-05-21T01:59:39.391Z,17.20
2023-05-21T02:02:06.189Z,17.20
2023-05-21T02:04:33.114Z,17.10
2023-05-21T02:06:59.733Z,17.10
2023-05-21T02:09:26.515Z,17.00
2023-05-21T02:11:53.148Z,17.00
2023-05-21T02:14:20.520Z,17.00
2023-05-21T02:16:47.216Z,17.00
2023-05-21T02:19:13.958Z,17.10
2023-05-21T02:21:40.767Z,17.10
2023-05-21T02:24:07.442Z,17.10
2023-05-21T02:26:34.168Z,17.00
2023-05-21T02:29:00.943Z,17.00
2023-05-21T02:31:27.587Z,17.00
2023-05-21T02:33:54.293Z,17.00
2023-05-21T02:36:20.961Z,17.00
2023-05-21T02:38:47.652Z,17.00
2023-05-21T02:41:14.331Z,17.00
2023-05-21T02:43:41.094Z,17.00
2023-05-21T02:46:08.007Z,17.00
2023-05-21T02:48:34.689Z,17.10
2023-05-21T02:51:01.340Z,17.10
2023-05-21T02:53:28.014Z,17.10
2023-05-21T02:55:54.675Z,17.10
2023-05-21T02:58:23.424Z,17.10
2023-05-21T03:00:50.122Z,17.10
2023-05-21T03:03:16.908Z,17.10
2023-05-21T03:05:43.694Z,17.20
2023-05-21T03:08:10.378Z,17.10
2023-05-21T03:10:37.054Z,17.10
2023-05-21T03:13:05.681Z,17.10
2023-05-21T03:15:33.541Z,17.10
2023-05-21T03:18:00.517Z,17.10
2023-05-21T03:20:28.819Z,17.10
2023-05-21T03:22:55.831Z,17.10
2023-05-21T03:25:25.062Z,17.10
2023-05-21T03:27:52.504Z,17.00
2023-05-21T03:30:19.244Z,17.00
2023-05-21T03:32:47.241Z,17.00
2023-05-21T03:35:13.977Z,17.80
2023-05-21T03:37:41.039Z,17.00
2023-05-21T03:40:08.292Z,17.00
2023-05-21T03:42:35.003Z,17.00
2023-05-21T03:45:03.579Z,17.00
2023-05-21T03:47:30.318Z,17.00
2023-05-21T03:49:57.034Z,17.00
2023-05-21T03:52:23.788Z,17.00
2023-05-21T03:54:50.452Z,17.00
2023-05-21T03:57:17.156Z,17.00
2023-05-21T03:59:43.785Z,17.00
2023-05-21T04:02:10.633Z,17.00
2023-05-21T04:04:37.396Z,17.00
2023-05-21T04:07:04.622Z,17.00
2023-05-21T04:09:31.300Z,17.00
2023-05-21T04:11:57.974Z,17.00
2023-05-21T04:14:24.715Z,17.00
2023-05-21T04:16:51.404Z,17.00
2023-05-21T04:19:18.115Z,17.00
2023-05-21T04:21:44.994Z,17.10
2023-05-21T04:24:11.940Z,17.10
2023-05-21T04:26:41.971Z,17.10
2023-05-21T04:29:09.844Z,17.10
2023-05-21T04:31:36.566Z,17.10
2023-05-21T04:34:03.386Z,17.10
2023-05-21T04:36:30.093Z,17.20
2023-05-21T04:38:56.777Z,17.20
2023-05-21T04:41:23.478Z,17.20
2023-05-21T04:43:54.931Z,17.30
2023-05-21T04:46:25.133Z,17.30
2023-05-21T04:48:58.056Z,17.30
2023-05-21T04:51:24.987Z,17.40
2023-05-21T04:53:51.964Z,17.40
2023-05-21T04:56:18.804Z,17.50
2023-05-21T04:58:49.237Z,17.50
2023-05-21T05:01:16.538Z,17.60
2023-05-21T05:03:43.343Z,17.60
2023-05-21T05:06:10.036Z,17.70
2023-05-21T05:08:36.812Z,17.70
2023-05-21T05:11:03.559Z,17.70
2023-05-21T05:13:30.341Z,17.70
2023-05-21T05:15:57.494Z,17.70
2023-05-21T05:18:24.360Z,17.80
2023-05-21T05:20:51.224Z,17.80
2023-05-21T05:23:17.928Z,17.90
2023-05-21T05:25:44.597Z,17.90
2023-05-21T05:28:11.317Z,18.00
2023-05-21T05:30:38.042Z,18.00
2023-05-21T05:33:04.845Z,18.10
2023-05-21T05:35:31.557Z,18.20
2023-05-21T05:37:58.590Z,18.20
2023-05-21T05:40:25.279Z,18.30
2023-05-21T05:42:52.738Z,18.40
2023-05-21T05:45:19.960Z,18.40
2023-05-21T05:47:46.929Z,18.50
2023-05-21T05:50:13.723Z,18.50
2023-05-21T05:52:40.410Z,18.60
2023-05-21T05:55:08.933Z,18.60
2023-05-21T05:57:36.059Z,18.70
2023-05-21T06:00:04.346Z,18.70
2023-05-21T06:02:31.227Z,18.80
2023-05-21T06:04:58.445Z,18.80
2023-05-21T06:07:25.169Z,18.90
2023-05-21T06:09:51.834Z,19.00
2023-05-21T06:12:18.549Z,19.00
2023-05-21T06:14:46.241Z,19.10
2023-05-21T06:17:13.170Z,19.10
2023-05-21T06:19:39.924Z,19.20
2023-05-21T06:22:06.657Z,19.30
2023-05-21T06:24:33.373Z,19.30
2023-05-21T06:27:00.125Z,19.40
2023-05-21T06:29:26.783Z,19.50
2023-05-21T06:31:53.444Z,19.50
2023-05-21T06:34:20.114Z,19.60
2023-05-21T06:36:47.548Z,19.50
2023-05-21T06:39:14.333Z,19.50
2023-05-21T06:41:41.000Z,19.60
2023-05-21T06:44:07.724Z,19.60
2023-05-21T06:46:35.526Z,19.60
2023-05-21T06:49:02.507Z,19.70
2023-05-21T06:51:29.257Z,19.70
2023-05-21T06:53:56.007Z,19.80
2023-05-21T06:56:22.927Z,19.90
2023-05-21T06:58:49.640Z,20.10
2023-05-21T07:01:16.460Z,20.40
2023-05-21T07:03:43.341Z,20.80
2023-05-21T07:06:10.207Z,21.20
2023-05-21T07:08:36.867Z,21.60
2023-05-21T07:11:03.586Z,21.80
2023-05-21T07:13:30.405Z,21.90
2023-05-21T07:15:57.163Z,21.90
2023-05-21T07:18:23.810Z,21.90
2023-05-21T07:20:50.484Z,21.90
2023-05-21T07:23:17.188Z,21.80
2023-05-21T07:25:43.888Z,22.00
2023-05-21T07:28:10.708Z,22.00
2023-05-21T07:30:37.377Z,22.30
2023-05-21T07:33:04.194Z,22.60
2023-05-21T07:35:31.077Z,23.00
2023-05-21T07:37:57.746Z,23.40
2023-05-21T07:40:24.595Z,23.80
2023-05-21T07:42:52.104Z,24.00
2023-05-21T07:45:18.833Z,24.30
2023-05-21T07:47:46.792Z,24.60
2023-05-21T07:50:14.440Z,24.90
2023-05-21T07:52:41.287Z,25.10
2023-05-21T07:55:09.296Z,25.40
2023-05-21T07:57:36.706Z,25.70
2023-05-21T08:00:05.729Z,26.10
2023-05-21T08:02:32.425Z,26.30
2023-05-21T08:04:59.257Z,26.50
2023-05-21T08:07:26.561Z,26.70
2023-05-21T08:09:54.416Z,26.80
2023-05-21T08:12:21.103Z,27.00
2023-05-21T08:14:47.795Z,27.20
2023-05-21T08:17:14.551Z,26.80
2023-05-21T08:19:41.948Z,27.40
2023-05-21T08:22:08.659Z,27.50
2023-05-21T08:24:35.382Z,27.60
2023-05-21T08:27:02.108Z,27.70
2023-05-21T08:29:28.757Z,27.80
2023-05-21T08:31:55.737Z,27.90
2023-05-21T08:34:22.441Z,28.00
2023-05-21T08:36:49.950Z,28.20
2023-05-21T08:39:16.798Z,28.30
2023-05-21T08:41:49.644Z,28.50
2023-05-21T08:44:24.138Z,28.60
2023-05-21T08:46:51.848Z,28.70
2023-05-21T08:49:21.086Z,28.80
2023-05-21T08:51:50.211Z,28.80
2023-05-21T08:54:16.945Z,29.00
2023-05-21T08:56:47.041Z,29.20
2023-05-21T08:59:14.979Z,29.20
2023-05-21T09:01:42.394Z,29.30
2023-05-21T09:04:20.411Z,29.20
2023-05-21T09:06:48.560Z,29.20
2023-05-21T09:09:26.554Z,29.40
2023-05-21T09:11:53.419Z,29.60
2023-05-21T09:14:21.396Z,29.80
2023-05-21T09:16:48.772Z,30.10
2023-05-21T09:19:15.731Z,30.20
2023-05-21T09:21:42.418Z,30.20
2023-05-21T09:24:10.484Z,30.20
2023-05-21T09:26:37.498Z,30.40
2023-05-21T09:29:04.176Z,30.40
2023-05-21T09:31:30.991Z,30.50
2023-05-21T09:33:57.736Z,30.60
2023-05-21T09:36:24.570Z,30.70
2023-05-21T09:38:52.033Z,31.00
2023-05-21T09:41:21.818Z,31.00
2023-05-21T09:43:49.151Z,30.90
2023-05-21T09:46:15.969Z,31.00
2023-05-21T09:48:43.291Z,31.10
2023-05-21T09:51:17.655Z,31.20
2023-05-21T09:53:52.031Z,31.30
2023-05-21T09:56:24.495Z,31.60
2023-05-21T09:58:56.698Z,31.70
2023-05-21T10:01:26.481Z,31.80
2023-05-21T10:03:58.000Z,31.90
2023-05-21T10:06:27.635Z,32.00
2023-05-21T10:08:56.761Z,31.70
2023-05-21T10:11:27.214Z,31.40
2023-05-21T10:14:09.182Z,30.90
2023-05-21T10:16:37.285Z,30.50
2023-05-21T10:19:05.211Z,30.70
2023-05-21T10:21:33.457Z,30.90
2023-05-21T10:24:02.468Z,31.20
2023-05-21T10:26:29.993Z,31.30
2023-05-21T10:29:00.071Z,31.30
2023-05-21T10:31:27.814Z,31.10
2023-05-21T10:33:57.362Z,31.10
2023-05-21T10:36:33.419Z,31.20
2023-05-21T10:39:01.914Z,31.10
2023-05-21T10:41:35.921Z,31.20
2023-05-21T10:44:16.581Z,31.20
2023-05-21T10:47:16.099Z,31.10
2023-05-21T10:49:51.803Z,31.00
2023-05-21T10:52:43.434Z,31.20
2023-05-21T10:55:32.367Z,31.50
2023-05-21T10:58:18.909Z,31.70
2023-05-21T11:00:45.848Z,32.10
2023-05-21T11:03:14.871Z,32.10
2023-05-21T11:05:55.167Z,32.60
2023-05-21T11:08:37.466Z,32.20
2023-05-21T11:11:05.001Z,31.90
2023-05-21T11:13:51.482Z,31.70
2023-05-21T11:16:18.431Z,31.40
2023-05-21T11:18:45.089Z,31.50
2023-05-21T11:21:22.292Z,31.60
2023-05-21T11:23:52.597Z,31.70
2023-05-21T11:26:50.370Z,31.80
2023-05-21T11:29:17.495Z,32.00
2023-05-21T11:32:01.322Z,32.20
2023-05-21T11:34:37.616Z,32.20
2023-05-21T11:37:30.040Z,32.40
2023-05-21T11:39:58.561Z,32.30
2023-05-21T11:42:44.137Z,32.60
2023-05-21T11:45:11.338Z,32.70
2023-05-21T11:47:40.115Z,32.80
2023-05-21T11:50:12.049Z,32.90
2023-05-21T11:52:39.828Z,32.70
2023-05-21T11:55:07.273Z,32.80
2023-05-21T11:57:34.023Z,32.70
2023-05-21T12:00:02.339Z,32.80
2023-05-21T12:02:32.718Z,33.10
2023-05-21T12:05:00.517Z,32.80
2023-05-21T12:07:31.180Z,32.70
2023-05-21T12:09:58.588Z,32.70
2023-05-21T12:12:35.294Z,32.70
2023-05-21T12:15:10.231Z,33.10
2023-05-21T12:17:36.972Z,33.00
2023-05-21T12:20:07.330Z,33.00
2023-05-21T12:22:34.061Z,33.20
2023-05-21T12:25:01.112Z,33.10
2023-05-21T12:27:28.305Z,33.40
2023-05-21T12:29:55.546Z,33.50
2023-05-21T12:32:22.318Z,33.50
2023-05-21T12:34:51.302Z,33.30
2023-05-21T12:37:25.544Z,33.30
2023-05-21T12:39:58.192Z,33.20
2023-05-21T12:42:34.808Z,33.00
2023-05-21T12:45:11.553Z,33.00
2023-05-21T12:47:38.667Z,33.10
2023-05-21T12:50:11.621Z,32.90
2023-05-21T12:52:41.203Z,32.80
2023-05-21T12:55:10.298Z,33.00
2023-05-21T12:57:41.459Z,33.10
2023-05-21T13:00:10.105Z,33.10
2023-05-21T13:02:44.839Z,33.10
2023-05-21T13:05:17.541Z,33.10
2023-05-21T13:07:46.708Z,33.30
2023-05-21T13:10:15.025Z,33.30
2023-05-21T13:12:44.105Z,33.30
2023-05-21T13:15:11.386Z,33.40
2023-05-21T13:17:38.115Z,33.40
2023-05-21T13:20:20.460Z,33.30
2023-05-21T13:22:49.574Z,33.00
2023-05-21T13:25:29.930Z,32.90
2023-05-21T13:27:57.617Z,32.30
2023-05-21T13:30:24.408Z,32.20
2023-05-21T13:32:52.198Z,32.20
2023-05-21T13:35:19.220Z,32.20
2023-05-21T13:37:46.290Z,32.20
2023-05-21T13:40:15.306Z,32.00
2023-05-21T13:42:43.866Z,32.20
2023-05-21T13:45:12.455Z,32.20
2023-05-21T13:47:40.429Z,32.20
2023-05-21T13:50:08.636Z,32.10
2023-05-21T13:52:36.007Z,32.00
2023-05-21T13:55:02.703Z,31.90
2023-05-21T13:57:30.887Z,31.80
2023-05-21T13:59:58.537Z,31.70
2023-05-21T14:02:25.562Z,31.40
2023-05-21T14:04:52.375Z,31.20
2023-05-21T14:07:19.078Z,31.10
2023-05-21T14:09:47.407Z,31.10
2023-05-21T14:12:14.152Z,31.10
2023-05-21T14:14:41.378Z,31.10
2023-05-21T14:17:08.072Z,31.10
2023-05-21T14:19:34.771Z,31.20
2023-05-21T14:22:01.462Z,31.10
2023-05-21T14:24:28.123Z,31.10
2023-05-21T14:26:54.790Z,31.10
2023-05-21T14:29:21.436Z,31.00
2023-05-21T14:31:48.483Z,30.80
2023-05-21T14:34:15.287Z,30.80
2023-05-21T14:36:42.125Z,30.90
2023-05-21T14:39:08.783Z,31.00
2023-05-21T14:41:39.498Z,31.00
2023-05-21T14:44:06.216Z,31.00
2023-05-21T14:46:33.067Z,31.10
2023-05-21T14:49:00.540Z,31.00
2023-05-21T14:51:27.417Z,30.90
2023-05-21T14:53:54.205Z,31.00
2023-05-21T14:56:21.972Z,31.00
2023-05-21T14:58:48.866Z,31.10
2023-05-21T15:01:15.604Z,31.00
2023-05-21T15:03:42.391Z,31.00
2023-05-21T15:06:09.369Z,31.00
2023-05-21T15:08:36.178Z,31.00
2023-05-21T15:11:02.940Z,31.00
2023-05-21T15:13:29.583Z,30.90
2023-05-21T15:15:56.377Z,30.90
2023-05-21T15:18:24.681Z,30.90
2023-05-21T15:20:51.601Z,30.90
2023-05-21T15:23:18.495Z,30.90
2023-05-21T15:25:45.685Z,30.90
2023-05-21T15:28:12.650Z,30.90
2023-05-21T15:30:40.036Z,31.00
2023-05-21T15:33:06.724Z,30.80
2023-05-21T15:35:35.266Z,30.90
2023-05-21T15:38:02.254Z,31.00
2023-05-21T15:40:28.901Z,30.90
2023-05-21T15:42:55.789Z,30.90
2023-05-21T15:45:22.556Z,30.90
2023-05-21T15:47:49.235Z,30.90
2023-05-21T15:50:15.975Z,30.90
2023-05-21T15:52:42.784Z,30.80
2023-05-21T15:55:09.887Z,31.00
2023-05-21T15:57:36.615Z,31.00
2023-05-21T16:00:04.891Z,30.90
2023-05-21T16:02:32.685Z,30.60
2023-05-21T16:04:59.352Z,30.50
2023-05-21T16:07:26.137Z,30.50
2023-05-21T16:09:52.850Z,30.60
2023-05-21T16:12:19.665Z,30.70
2023-05-21T16:14:49.822Z,30.70
2023-05-21T16:17:16.973Z,30.70
2023-05-21T16:19:43.737Z,30.80
2023-05-21T16:22:11.027Z,30.80
2023-05-21T16:24:37.904Z,30.80
2023-05-21T16:27:05.016Z,30.80
2023-05-21T16:29:32.172Z,30.70
2023-05-21T16:31:58.935Z,30.70
2023-05-21T16:34:25.863Z,30.70
2023-05-21T16:36:52.528Z,30.70
2023-05-21T16:39:19.239Z,30.80
2023-05-21T16:41:46.047Z,30.80
2023-05-21T16:44:12.748Z,30.70
2023-05-21T16:46:39.387Z,30.70
2023-05-21T16:49:06.204Z,30.70
2023-05-21T16:51:32.873Z,30.50
2023-05-21T16:53:59.570Z,30.10
2023-05-21T16:56:27.536Z,29.90
2023-05-21T16:58:54.369Z,29.80
2023-05-21T17:01:21.140Z,29.50
2023-05-21T17:03:47.935Z,29.30
2023-05-21T17:06:14.986Z,29.30
2023-05-21T17:08:42.645Z,29.30
2023-05-21T17:11:09.458Z,29.20
2023-05-21T17:13:36.282Z,29.20
2023-05-21T17:16:03.094Z,29.20
2023-05-21T17:18:31.181Z,29.10
2023-05-21T17:20:58.866Z,29.10
2023-05-21T17:23:25.643Z,29.00
2023-05-21T17:25:52.600Z,29.00
2023-05-21T17:28:19.449Z,28.90
2023-05-21T17:30:48.693Z,28.80
2023-05-21T17:33:16.361Z,28.80
2023-05-21T17:35:43.310Z,28.70
2023-05-21T17:38:10.298Z,28.60
2023-05-21T17:40:37.024Z,28.60
2023-05-21T17:43:04.803Z,28.50
2023-05-21T17:45:31.579Z,28.40
2023-05-21T17:48:00.177Z,28.30
2023-05-21T17:50:27.812Z,28.20
2023-05-21T17:52:54.495Z,28.00
2023-05-21T17:55:21.239Z,28.00
2023-05-21T17:57:48.021Z,27.90
2023-05-21T18:00:14.929Z,27.70
2023-05-21T18:02:41.635Z,27.60
2023-05-21T18:05:08.496Z,27.50
2023-05-21T18:07:35.267Z,27.40
2023-05-21T18:10:01.924Z,27.30
2023-05-21T18:12:28.650Z,27.10
2023-05-21T18:14:55.292Z,27.00
2023-05-21T18:17:22.035Z,26.90
2023-05-21T18:19:48.861Z,26.70
2023-05-21T18:22:15.549Z,26.60
2023-05-21T18:24:42.694Z,26.50
2023-05-21T18:27:09.381Z,26.30
2023-05-21T18:29:36.736Z,26.10
2023-05-21T18:32:04.156Z,26.00
2023-05-21T18:34:30.921Z,25.90
2023-05-21T18:36:58.723Z,25.80
2023-05-21T18:39:26.865Z,25.60
2023-05-21T18:42:05.226Z,25.50
2023-05-21T18:44:38.653Z,25.20
2023-05-21T18:47:05.871Z,25.10
2023-05-21T18:49:35.237Z,25.00
2023-05-21T18:52:01.992Z,24.80
2023-05-21T18:54:28.651Z,24.60
2023-05-21T18:56:59.469Z,24.30
2023-05-21T18:59:27.161Z,24.30
2023-05-21T19:01:54.828Z,24.20
2023-05-21T19:04:21.861Z,24.00
2023-05-21T19:06:48.564Z,23.80
2023-05-21T19:09:15.331Z,23.70
2023-05-21T19:11:42.094Z,23.50
2023-05-21T19:14:08.803Z,23.40
2023-05-21T19:16:35.631Z,23.40
2023-05-21T19:19:03.329Z,23.20
2023-05-21T19:21:31.294Z,24.30
2023-05-21T19:23:58.113Z,23.00
2023-05-21T19:26:24.872Z,22.80
2023-05-21T19:28:53.815Z,22.70
2023-05-21T19:31:21.863Z,22.60
2023-05-21T19:33:49.033Z,22.40
2023-05-21T19:36:16.125Z,22.40
2023-05-21T19:38:50.202Z,22.20
2023-05-21T19:41:17.640Z,22.20
2023-05-21T19:43:45.219Z,22.00
2023-05-21T19:46:11.935Z,21.90
2023-05-21T19:48:38.887Z,21.70
2023-05-21T19:51:05.911Z,21.70
2023-05-21T19:53:32.597Z,21.60
2023-05-21T19:55:59.682Z,21.40
2023-05-21T19:58:29.270Z,21.20
2023-05-21T20:00:58.179Z,21.10
2023-05-21T20:03:35.315Z,21.00
2023-05-21T20:06:03.172Z,20.80
2023-05-21T20:08:30.313Z,20.80
2023-05-21T20:10:57.012Z,20.80
2023-05-21T20:13:24.254Z,20.80
2023-05-21T20:15:50.964Z,20.80
2023-05-21T20:18:19.840Z,20.70
2023-05-21T20:20:46.818Z,20.60
2023-05-21T20:23:13.853Z,20.50
2023-05-21T20:25:40.549Z,20.50
2023-05-21T20:28:08.685Z,20.50
2023-05-21T20:30:57.372Z,20.40
2023-05-21T20:33:25.395Z,20.40
2023-05-21T20:35:52.184Z,20.30
2023-05-21T20:38:20.900Z,20.20
2023-05-21T20:40:47.647Z,20.20
2023-05-21T20:43:15.209Z,20.10
2023-05-21T20:45:43.499Z,20.00
2023-05-21T20:48:11.912Z,20.10
2023-05-21T20:50:38.859Z,20.10
2023-05-21T20:53:05.650Z,20.00
2023-05-21T20:55:34.705Z,20.00
2023-05-21T20:58:05.180Z,20.00
2023-05-21T21:00:33.319Z,19.90
2023-05-21T21:03:01.810Z,19.80
2023-05-21T21:05:28.627Z,19.80
2023-05-21T21:07:56.060Z,19.80
2023-05-21T21:10:22.964Z,19.70
2023-05-21T21:12:49.660Z,19.70
2023-05-21T21:15:16.528Z,19.70
2023-05-21T21:17:43.240Z,19.60
2023-05-21T21:20:10.692Z,19.50
2023-05-21T21:22:37.558Z,19.50
2023-05-21T21:25:04.600Z,19.50
2023-05-21T21:27:31.452Z,19.50
2023-05-21T21:29:58.117Z,19.40
2023-05-21T21:32:25.989Z,19.40
2023-05-21T21:34:52.723Z,19.40
2023-05-21T21:37:19.395Z,19.40
2023-05-21T21:39:46.048Z,19.30
2023-05-21T21:42:12.848Z,19.30
2023-05-21T21:44:39.624Z,19.30
2023-05-21T21:47:06.365Z,19.20
2023-05-21T21:49:33.042Z,19.20
2023-05-21T21:51:59.774Z,19.20
2023-05-21T21:54:27.637Z,19.10
2023-05-21T21:56:54.644Z,19.10
2023-05-21T21:59:22.289Z,19.10
2023-05-21T22:01:49.298Z,19.00
2023-05-21T22:04:16.165Z,18.90
2023-05-21T22:06:45.139Z,18.90
2023-05-21T22:09:12.316Z,18.80
2023-05-21T22:11:39.282Z,18.80
2023-05-21T22:14:06.143Z,18.80
2023-05-21T22:16:36.545Z,18.70
2023-05-21T22:19:03.515Z,18.80
2023-05-21T22:21:32.838Z,18.80
2023-05-21T22:23:59.823Z,18.70
2023-05-21T22:26:26.489Z,18.70
2023-05-21T22:28:53.149Z,18.60
2023-05-21T22:31:19.973Z,18.60
2023-05-21T22:33:46.920Z,18.60
2023-05-21T22:36:13.564Z,18.50
2023-05-21T22:38:40.233Z,18.40
2023-05-21T22:41:08.440Z,18.30
2023-05-21T22:43:36.535Z,18.30
2023-05-21T22:46:03.565Z,18.20
2023-05-21T22:48:34.015Z,18.20
2023-05-21T22:51:01.760Z,18.10
2023-05-21T22:53:28.726Z,18.00
2023-05-21T22:55:55.420Z,18.00
2023-05-21T22:58:22.100Z,18.00
2023-05-21T23:00:49.040Z,17.90
2023-05-21T23:03:16.716Z,17.90
2023-05-21T23:05:43.657Z,17.90
2023-05-21T23:08:10.654Z,17.80
2023-05-21T23:10:37.601Z,17.80
2023-05-21T23:13:04.614Z,17.80
2023-05-21T23:15:31.289Z,17.70
2023-05-21T23:17:58.142Z,17.70
2023-05-21T23:20:24.815Z,17.80
2023-05-21T23:22:52.202Z,17.80
2023-05-21T23:25:18.877Z,17.80
2023-05-21T23:27:45.649Z,17.80
2023-05-21T23:30:12.527Z,17.80
2023-05-21T23:32:39.228Z,17.90
2023-05-21T23:35:07.487Z,17.80
2023-05-21T23:37:34.180Z,17.80
2023-05-21T23:40:01.016Z,17.70
2023-05-21T23:42:27.744Z,17.60
2023-05-21T23:44:54.421Z,17.60
2023-05-21T23:47:21.042Z,17.50
2023-05-21T23:49:47.703Z,17.60
2023-05-21T23:52:17.151Z,17.50
2023-05-21T23:54:44.339Z,17.60
2023-05-21T23:57:11.312Z,17.60
2023-05-21T23:59:37.976Z,17.50
